Airfield :
LOGIN :

Register | Disclaimer

   EN    FR    IT 

 










Legend :    VFR   Marginal VFR   IFR   Intensive IFR   Very Intensive IFR
Visi :
Ceiling :
>= 8 km
>= 3000ft
5 to 8 km
1000 to 3000 ft
1500m to 5 km
500 to 1000 ft
800 to 1500m
200 to 500 ft
< 800m
< 200 ft
Symbols :   Thunderstorms  Fog  Heavy snow  Heavy precipitations  Wind > 20 kt
SIGMETs :     Misc.  Thunderstorms  Icing  Turbulence  Mountain Waves  Volcanic Ashes







- Airport Elevation : 32 ft
- IATA code : LKZ


EGUL - RAF Lakenheath

CURRENT METAR :
  • 251856Z 17009KT 9999 CLR 13/05 A3054 RMK AO2A SLP345 T01260053 $

EXPIRED METARs :
  • 251756Z AUTO 19003KT 9999 CLR 14/05 A3054 RMK AO2 SLP345 T01370051 10172 20137 58006 $
  • 251656Z AUTO 23009KT 9999 CLR 16/05 A3055 RMK AO2 SLP349 T01590049 $

TAF AMD TAF EGUL
Valid from the 25 at 17:00 until the 26 at 18:00 UTC


251714Z 2517/2618 VRB06KT 9999 FEW040 QNH3052INS
BECMG 2521/2522 20009KT 9999 BKN050 QNH3051INS
BECMG 2604/2605 25009KT 9999 SCT040 QNH3050INS
BECMG 2608/2609 23010G20KT 9999 SCT030 QNH3044INS
BECMG 2615/2616 25009KT 9999 SCT020 BKN040 QNH3040INS TX17/2614Z TN06/2604Z
No reported NOTAMs for that airfield.
1 SIGMET reported for the London FIR (EGTT) :
 
Severe mountain waves
EGTT SIGMET 01 VALID 251800/252200 EGRR
EGTT LONDON FIR SEV MTW FCST WI N5421 W00004 - N5311 W00204 - N5500 W00356 - N5500 W00100 - N5500 W00021 - N5421 W00004 FL030/200 STNR NC=



MET'MAP, your aeronautical weather chart ! - Copyright ORBIFLY December 2007 - Disclaimer

ORBIFLY MET'MAP TEAM :

Programming & Development : Alexandra Zaïnal
Concept & Development : Baudouin d'Aumeries
Co-Development & Prog : Marc-Olivier Méhu
Technical & hardware support : Manuel Goepfert

Contact : metmap@orbifly.com




SOURCES & CREDITS :

   NOAA